Search for airport 
image banner adimage banner adimage banner ad
image banner ad

4PS5 - Muddy Creek

Located in Carmicheal, United States

ICAO - 4PS5, IATA -

Data provided by Airmate  

General information

Coordinates: N39°55'14" W79°56'55"
Elevation is 1080 feet MSL.
 
View others Airports in Pennsylvania

Operational data

Special qualification required
Current time UTC:
Current local time:
METAR: KMGW 071253Z 00000KT 10SM FEW047 BKN060 OVC085 08/06 A2989 RMK AO2 SLP125 T00830056
TAF: KMGW 071133Z 0712/0812 00000KT P6SM BKN060 FM071300 26004KT 6SM -SHRA OVC025 FM071500 28005KT 3SM -SHRA OVC015 FM071900 30006KT 6SM -SHRA BKN020 FM072100 30008KT P6SM BKN045 FM080600 24004KT P6SM VCSH BKN020
View NOTAMs / SUP AIP / TFR affecting this airport [VIEW]
Communications frequencies: [VIEW]

Runways:

RWY identifierQFULength (ft)Width (ft)SurfaceLDA (ft)
022110100GRASS
202110100GRASS

Airport contact information

Address: Carmicheal United States

Satellite view of 4PS5